To NAV CANADA Home Page Login to a new session Search on AWWS site Disclaimer Vers la page française équivalente Tips FAQ What's new on the site To the Forecasts and Observations / NOTAM section To "File a Flight Plan" website Publications and other links Update of the User's profile FIC Telephone Numbers My Weather Data Folder Route Weather Data Regional Weather Data Local Weather Data To the Forecasts and Observations / NOTAM section
Request Generated 04/23/2018 at 17:09:55 UTC . Weather information available at that time is displayed.

METAR/TAF

TORONTO/BILLY BISHOP TORONTO CITY AIRPORT/ON    (show WxCam)

METAR CYTZ 231700Z AUTO 08014KT 9SM CLR 09/M00 A3036 RMK SLP283=
METAR CYTZ 231600Z AUTO 08014KT 9SM CLR 09/M01 A3038 RMK SLP290=
METAR CYTZ 231500Z AUTO 08015KT 9SM CLR 09/M01 A3039 RMK SLP295=

TAF CYTZ 231339Z 2314/2414 08012KT P6SM SKC
BECMG 2403/2405 VRB03KT
FM240700 20005KT P6SM BKN240
FM241200 15003KT P6SM SCT050 BKN140
RMK FCST BASED ON AUTO OBS. NXT FCST BY 232000Z=
Your time UTC time
Weather data provided by Environment Canada and NAV CANADA